createdAt,value
2018-06-03T00:00:45.772Z,101541.44
2018-06-03T00:01:49.923Z,101544.38
2018-06-03T00:02:54.061Z,101543.36
2018-06-03T00:03:58.193Z,101541.32
2018-06-03T00:05:02.334Z,101544.58
2018-06-03T00:06:07.242Z,101539.58
2018-06-03T00:07:12.890Z,101542.12
2018-06-03T00:08:17.061Z,101540.33
2018-06-03T00:09:21.199Z,101540.80
2018-06-03T00:10:25.330Z,101538.72
2018-06-03T00:11:29.462Z,101541.25
2018-06-03T00:12:33.657Z,101544.36
2018-06-03T00:13:38.585Z,101541.69
2018-06-03T00:14:43.501Z,101537.21
2018-06-03T00:15:47.630Z,101535.45
2018-06-03T00:16:52.521Z,101542.74
2018-06-03T00:17:56.661Z,101537.12
2018-06-03T00:19:02.062Z,101546.59
2018-06-03T00:20:06.203Z,101542.01
2018-06-03T00:21:41.573Z,101543.80
2018-06-03T00:22:45.706Z,101545.15
2018-06-03T00:23:49.838Z,101546.33
2018-06-03T00:24:54.051Z,101545.78
2018-06-03T00:25:58.209Z,101547.91
2018-06-03T00:27:02.395Z,101547.36
2018-06-03T00:28:07.299Z,101547.83
2018-06-03T00:29:12.937Z,101547.80
2018-06-03T00:30:17.121Z,101549.98
2018-06-03T00:31:21.275Z,101543.81
2018-06-03T00:32:26.171Z,101549.98
2018-06-03T00:33:30.305Z,101548.11
2018-06-03T00:34:34.443Z,101545.95
2018-06-03T00:35:56.497Z,101548.97
2018-06-03T00:37:00.630Z,101544.04
2018-06-03T00:38:06.281Z,101542.31
2018-06-03T00:39:10.515Z,101543.89
2018-06-03T00:40:14.655Z,101546.48
2018-06-03T00:41:19.222Z,101539.72
2018-06-03T00:42:23.362Z,101539.28
2018-06-03T00:43:28.270Z,101547.25
2018-06-03T00:44:33.918Z,101547.99
2018-06-03T00:45:39.557Z,101546.75
2018-06-03T00:46:45.210Z,101548.57
2018-06-03T00:47:49.346Z,101549.98
2018-06-03T00:48:53.477Z,101549.41
2018-06-03T00:49:57.613Z,101550.22
2018-06-03T00:51:01.757Z,101556.09
2018-06-03T00:52:05.897Z,101552.14
2018-06-03T00:53:10.030Z,101552.14
2018-06-03T00:54:14.170Z,101552.32
2018-06-03T00:55:19.805Z,101553.84
2018-06-03T00:56:41.865Z,101550.67
2018-06-03T00:57:46.765Z,101549.69
2018-06-03T00:58:50.911Z,101546.61
2018-06-03T00:59:55.801Z,101549.61
2018-06-03T01:00:59.939Z,101554.53
2018-06-03T01:02:04.871Z,101558.17
2018-06-03T01:03:09.779Z,101553.96
2018-06-03T01:04:13.914Z,101548.60
2018-06-03T01:05:18.059Z,101553.35
2018-06-03T01:06:22.377Z,101549.75
2018-06-03T01:07:26.515Z,101550.12
2018-06-03T01:08:30.650Z,101543.64
2018-06-03T01:09:34.793Z,101550.16
2018-06-03T01:10:38.927Z,101548.83
2018-06-03T01:11:43.073Z,101544.36
2018-06-03T01:12:47.201Z,101545.72
2018-06-03T01:13:51.340Z,101541.22
2018-06-03T01:14:55.471Z,101547.04
2018-06-03T01:15:59.730Z,101547.35
2018-06-03T01:17:03.875Z,101544.27
2018-06-03T01:18:08.001Z,101541.58
2018-06-03T01:19:12.902Z,101539.80
2018-06-03T01:20:17.038Z,101536.68
2018-06-03T01:21:21.230Z,101543.91
2018-06-03T01:22:25.377Z,101543.01
2018-06-03T01:23:30.274Z,101546.84
2018-06-03T01:24:34.419Z,101547.55
2018-06-03T01:25:39.321Z,101544.59
2018-06-03T01:26:43.682Z,101544.93
2018-06-03T01:27:47.823Z,101542.98
2018-06-03T01:28:52.247Z,101546.88
2018-06-03T01:29:56.385Z,101545.92
2018-06-03T01:31:01.286Z,101545.89
2018-06-03T01:32:06.930Z,101549.56
2018-06-03T01:33:12.578Z,101551.27
2018-06-03T01:34:18.254Z,101546.45
2018-06-03T01:35:22.394Z,101541.63
2018-06-03T01:36:26.515Z,101542.93
2018-06-03T01:37:30.650Z,101546.45
2018-06-03T01:38:34.789Z,101544.47
2018-06-03T01:39:39.739Z,101546.14
2018-06-03T01:40:44.003Z,101540.80
2018-06-03T01:41:49.644Z,101544.53
2018-06-03T01:42:54.541Z,101541.87
2018-06-03T01:43:58.678Z,101542.22
2018-06-03T01:45:02.815Z,101545.64
2018-06-03T01:46:07.730Z,101546.94
2018-06-03T01:47:12.685Z,101542.59
2018-06-03T01:48:16.861Z,101542.90
2018-06-03T01:49:20.985Z,101542.41
2018-06-03T01:50:25.877Z,101543.45
2018-06-03T01:51:30.015Z,101537.73
2018-06-03T01:52:34.953Z,101539.00
2018-06-03T01:53:39.868Z,101536.23
2018-06-03T01:54:43.989Z,101533.30
2018-06-03T01:55:48.893Z,101531.44
2018-06-03T01:56:53.814Z,101535.73
2018-06-03T01:57:58.113Z,101529.34
2018-06-03T01:59:02.245Z,101528.97
2018-06-03T02:00:06.373Z,101523.99
2018-06-03T02:01:11.268Z,101531.19
2018-06-03T02:02:15.394Z,101527.84
2018-06-03T02:03:20.493Z,101524.82
2018-06-03T02:04:24.629Z,101529.30
2018-06-03T02:05:28.758Z,101528.72
2018-06-03T02:06:33.661Z,101528.84
2018-06-03T02:07:37.789Z,101529.27
2018-06-03T02:08:42.706Z,101525.72
2018-06-03T02:09:46.837Z,101525.25
2018-06-03T02:10:50.969Z,101524.05
2018-06-03T02:11:55.107Z,101520.06
2018-06-03T02:12:59.249Z,101521.61
2018-06-03T02:14:03.521Z,101519.81
2018-06-03T02:15:07.657Z,101525.41
2018-06-03T02:16:11.795Z,101520.81
2018-06-03T02:17:15.922Z,101519.82
2018-06-03T02:18:20.059Z,101517.63
2018-06-03T02:19:24.258Z,101519.39
2018-06-03T02:20:28.389Z,101518.83
2018-06-03T02:21:34.035Z,101521.92
2018-06-03T02:22:38.171Z,101520.72
2018-06-03T02:23:43.069Z,101516.02
2018-06-03T02:24:47.217Z,101515.31
2018-06-03T02:25:51.412Z,101520.56
2018-06-03T02:26:55.561Z,101517.53
2018-06-03T02:27:59.697Z,101519.02
2018-06-03T02:29:03.834Z,101517.59
2018-06-03T02:30:07.979Z,101517.72
2018-06-03T02:31:12.121Z,101516.81
2018-06-03T02:32:16.264Z,101511.81
2018-06-03T02:33:20.412Z,101512.53
2018-06-03T02:34:24.562Z,101513.67
2018-06-03T02:35:28.759Z,101509.02
2018-06-03T02:36:32.886Z,101518.03
2018-06-03T02:37:37.022Z,101510.25
2018-06-03T02:38:41.933Z,101513.67
2018-06-03T02:39:46.074Z,101509.53
2018-06-03T02:40:50.653Z,101508.58
2018-06-03T02:41:54.799Z,101511.61
2018-06-03T02:42:59.690Z,101508.05
2018-06-03T02:44:05.339Z,101512.88
2018-06-03T02:45:09.475Z,101511.55
2018-06-03T02:46:14.390Z,101507.55
2018-06-03T02:47:18.543Z,101505.43
2018-06-03T02:48:22.678Z,101504.97
2018-06-03T02:49:26.869Z,101504.94
2018-06-03T02:50:30.998Z,101503.05
2018-06-03T02:51:35.134Z,101498.23
2018-06-03T02:52:40.034Z,101506.63
2018-06-03T02:53:44.237Z,101505.43
2018-06-03T02:54:48.754Z,101505.83
2018-06-03T02:55:52.890Z,101510.43
2018-06-03T02:56:57.018Z,101505.58
2018-06-03T02:58:01.926Z,101503.02
2018-06-03T02:59:06.544Z,101507.93
2018-06-03T03:00:10.697Z,101506.36
2018-06-03T03:01:14.855Z,101503.83
2018-06-03T03:02:20.502Z,101505.06
2018-06-03T03:03:24.634Z,101508.83
2018-06-03T03:04:29.533Z,101503.61
2018-06-03T03:05:34.444Z,101507.13
2018-06-03T03:06:38.771Z,101504.07
2018-06-03T03:07:44.416Z,101502.28
2018-06-03T03:08:48.548Z,101497.86
2018-06-03T03:09:53.472Z,101505.27
2018-06-03T03:10:57.603Z,101504.94
2018-06-03T03:12:01.787Z,101501.20
2018-06-03T03:13:05.917Z,101502.09
2018-06-03T03:14:10.063Z,101502.71
2018-06-03T03:15:14.197Z,101506.08
2018-06-03T03:16:18.333Z,101506.20
2018-06-03T03:17:23.270Z,101504.97
2018-06-03T03:18:28.170Z,101507.99
2018-06-03T03:19:32.309Z,101503.02
2018-06-03T03:20:37.230Z,101509.41
2018-06-03T03:21:42.155Z,101502.80
2018-06-03T03:22:47.051Z,101508.48
2018-06-03T03:23:51.185Z,101505.98
2018-06-03T03:24:56.090Z,101507.28
2018-06-03T03:26:00.425Z,101504.90
2018-06-03T03:27:04.558Z,101507.47
2018-06-03T03:28:08.698Z,101507.63
2018-06-03T03:29:12.835Z,101504.47
2018-06-03T03:30:16.980Z,101508.14
2018-06-03T03:31:21.643Z,101508.91
2018-06-03T03:32:25.787Z,101504.25
2018-06-03T03:33:30.685Z,101509.31
2018-06-03T03:34:34.824Z,101511.08
2018-06-03T03:35:39.725Z,101507.68
2018-06-03T03:36:43.907Z,101508.61
2018-06-03T03:37:48.045Z,101509.23
2018-06-03T03:38:53.694Z,101513.86
2018-06-03T03:39:57.830Z,101511.33
2018-06-03T03:41:02.733Z,101509.44
2018-06-03T03:42:08.502Z,101510.12
2018-06-03T03:43:13.404Z,101509.66
2018-06-03T03:44:19.049Z,101510.05
2018-06-03T03:45:24.693Z,101514.02
2018-06-03T03:46:28.837Z,101514.38
2018-06-03T03:47:34.089Z,101516.33
2018-06-03T03:48:38.217Z,101517.69
2018-06-03T03:49:42.357Z,101515.16
2018-06-03T03:50:46.496Z,101515.45
2018-06-03T03:51:51.393Z,101514.90
2018-06-03T03:52:55.873Z,101518.83
2018-06-03T03:54:00.005Z,101517.53
2018-06-03T03:55:04.151Z,101518.18
2018-06-03T03:56:09.049Z,101514.22
2018-06-03T03:57:13.194Z,101511.69
2018-06-03T03:58:18.138Z,101510.30
2018-06-03T03:59:22.397Z,101515.49
2018-06-03T04:00:26.538Z,101510.54
2018-06-03T04:01:31.447Z,101510.02
2018-06-03T04:02:35.577Z,101511.55
2018-06-03T04:03:40.538Z,101511.55
2018-06-03T04:04:44.678Z,101513.28
2018-06-03T04:05:49.065Z,101515.75
2018-06-03T04:06:53.204Z,101517.82
2018-06-03T04:07:58.866Z,101515.96
2018-06-03T04:09:03.022Z,101516.95
2018-06-03T04:10:07.153Z,101516.83
2018-06-03T04:11:11.290Z,101520.66
2018-06-03T04:12:15.880Z,101525.17
2018-06-03T04:13:20.071Z,101524.16
2018-06-03T04:14:24.928Z,101529.20
2018-06-03T04:15:29.075Z,101529.04
2018-06-03T04:16:33.979Z,101524.98
2018-06-03T04:17:39.814Z,101531.38
2018-06-03T04:18:43.958Z,101527.23
2018-06-03T04:19:48.858Z,101524.14
2018-06-03T04:20:54.509Z,101531.89
2018-06-03T04:21:58.647Z,101529.61
2018-06-03T04:23:03.016Z,101530.82
2018-06-03T04:24:07.198Z,101527.16
2018-06-03T04:25:11.337Z,101531.00
2018-06-03T04:26:16.265Z,101528.16
2018-06-03T04:27:20.410Z,101527.74
2018-06-03T04:28:25.357Z,101527.95
2018-06-03T04:29:29.485Z,101522.07
2018-06-03T04:30:33.625Z,101525.13
2018-06-03T04:31:37.761Z,101522.38
2018-06-03T04:32:42.665Z,101525.67
2018-06-03T04:33:46.819Z,101524.44
2018-06-03T04:34:50.967Z,101530.53
2018-06-03T04:35:55.101Z,101526.61
2018-06-03T04:36:59.233Z,101532.63
2018-06-03T04:38:04.522Z,101525.24
2018-06-03T04:39:08.658Z,101530.80
2018-06-03T04:40:12.796Z,101522.48
2018-06-03T04:41:17.287Z,101527.11
2018-06-03T04:42:21.389Z,101526.72
2018-06-03T04:43:25.701Z,101527.45
2018-06-03T04:44:29.846Z,101530.35
2018-06-03T04:45:33.987Z,101531.98
2018-06-03T04:47:41.377Z,101530.16
2018-06-03T04:48:45.542Z,101531.36
2018-06-03T04:49:50.454Z,101531.92
2018-06-03T04:50:54.621Z,101535.62
2018-06-03T04:51:58.763Z,101534.05
2018-06-03T04:53:04.410Z,101529.13
2018-06-03T04:54:08.545Z,101530.69
2018-06-03T04:55:13.454Z,101536.72
2018-06-03T04:56:17.605Z,101532.80
2018-06-03T04:57:22.161Z,101535.82
2018-06-03T04:58:26.308Z,101532.49
2018-06-03T04:59:31.223Z,101532.92
2018-06-03T05:00:35.361Z,101537.92
2018-06-03T05:01:39.534Z,101542.72
2018-06-03T05:02:44.134Z,101535.19
2018-06-03T05:03:48.275Z,101538.59
2018-06-03T05:04:53.179Z,101538.62
2018-06-03T05:05:58.081Z,101536.12
2018-06-03T05:07:02.217Z,101535.45
2018-06-03T05:08:07.901Z,101539.98
2018-06-03T05:09:12.037Z,101544.52
2018-06-03T05:10:16.202Z,101540.92
2018-06-03T05:11:21.107Z,101534.66
2018-06-03T05:12:26.758Z,101542.29
2018-06-03T05:13:32.422Z,101538.72
2018-06-03T05:14:37.336Z,101542.45
2018-06-03T05:15:41.477Z,101541.59
2018-06-03T05:16:46.041Z,101543.66
2018-06-03T05:17:50.177Z,101544.42
2018-06-03T05:18:55.131Z,101543.09
2018-06-03T05:19:59.264Z,101536.76
2018-06-03T05:21:03.397Z,101539.75
2018-06-03T05:22:07.909Z,101539.33
2018-06-03T05:23:12.046Z,101544.39
2018-06-03T05:24:16.177Z,101542.81
2018-06-03T05:25:21.082Z,101538.75
2018-06-03T05:26:26.721Z,101545.17
2018-06-03T05:27:30.873Z,101546.98
2018-06-03T05:28:35.010Z,101549.11
2018-06-03T05:29:39.155Z,101551.84
2018-06-03T05:30:43.294Z,101544.70
2018-06-03T05:31:47.440Z,101545.90
2018-06-03T05:32:51.590Z,101549.19
2018-06-03T05:33:56.518Z,101552.27
2018-06-03T05:35:01.102Z,101548.30
2018-06-03T05:36:05.241Z,101557.09
2018-06-03T05:37:09.374Z,101553.23
2018-06-03T05:38:13.512Z,101557.03
2018-06-03T05:39:17.649Z,101554.55
2018-06-03T05:40:23.339Z,101556.25
2018-06-03T05:41:28.233Z,101560.22
2018-06-03T05:42:32.431Z,101556.84
2018-06-03T05:43:36.543Z,101563.20
2018-06-03T05:44:40.673Z,101565.13
2018-06-03T05:45:45.654Z,101564.88
2018-06-03T05:46:49.813Z,101565.60
2018-06-03T05:47:54.720Z,101565.86
2018-06-03T05:48:58.950Z,101564.72
2018-06-03T05:50:03.851Z,101564.17
2018-06-03T05:51:08.041Z,101566.63
2018-06-03T05:52:12.178Z,101568.19
2018-06-03T05:53:17.826Z,101563.86
2018-06-03T05:54:21.963Z,101568.56
2018-06-03T05:55:26.870Z,101564.50
2018-06-03T05:56:31.818Z,101566.16
2018-06-03T05:57:36.719Z,101566.31
2018-06-03T05:58:40.849Z,101565.74
2018-06-03T05:59:44.990Z,101560.63
2018-06-03T06:00:49.125Z,101559.95
2018-06-03T06:01:53.380Z,101563.46
2018-06-03T06:02:58.281Z,101564.01
2018-06-03T06:04:02.586Z,101559.45
2018-06-03T06:05:06.722Z,101563.62
2018-06-03T06:06:11.625Z,101566.11
2018-06-03T06:07:17.265Z,101561.52
2018-06-03T06:08:23.018Z,101563.26
2018-06-03T06:09:27.200Z,101565.39
2018-06-03T06:10:31.334Z,101563.11
2018-06-03T06:11:36.975Z,101562.31
2018-06-03T06:12:42.642Z,101565.02
2018-06-03T06:13:46.772Z,101564.63
2018-06-03T06:14:51.133Z,101565.17
2018-06-03T06:15:55.283Z,101567.81
2018-06-03T06:16:59.445Z,101569.17
2018-06-03T06:18:03.585Z,101567.44
2018-06-03T06:19:07.729Z,101568.72
2018-06-03T06:20:12.303Z,101567.02
2018-06-03T06:21:16.434Z,101577.41
2018-06-03T06:22:21.420Z,101577.47
2018-06-03T06:23:25.550Z,101578.52
2018-06-03T06:24:29.694Z,101583.00
2018-06-03T06:25:34.264Z,101572.30
2018-06-03T06:26:38.406Z,101582.82
2018-06-03T06:27:43.296Z,101580.69
2018-06-03T06:28:47.440Z,101579.38
2018-06-03T06:29:51.562Z,101581.80
2018-06-03T06:30:55.724Z,101583.83
2018-06-03T06:31:59.867Z,101579.16
2018-06-03T06:33:04.767Z,101584.17
2018-06-03T06:34:08.906Z,101582.69
2018-06-03T06:35:13.861Z,101585.11
2018-06-03T06:36:18.042Z,101581.80
2018-06-03T06:37:22.938Z,101584.80
2018-06-03T06:38:27.078Z,101586.41
2018-06-03T06:39:31.970Z,101591.97
2018-06-03T06:40:36.126Z,101587.64
2018-06-03T06:41:41.028Z,101593.67
2018-06-03T06:42:45.162Z,101594.95
2018-06-03T06:43:49.743Z,101596.30
2018-06-03T06:44:54.402Z,101594.19
2018-06-03T06:45:59.316Z,101593.80
2018-06-03T06:47:03.448Z,101602.38
2018-06-03T06:48:07.590Z,101600.05
2018-06-03T06:49:11.733Z,101600.75
2018-06-03T06:50:16.629Z,101599.96
2018-06-03T06:51:21.611Z,101597.36
2018-06-03T06:52:26.527Z,101599.53
2018-06-03T06:53:31.435Z,101599.25
2018-06-03T06:54:35.565Z,101598.66
2018-06-03T06:55:40.494Z,101605.47
2018-06-03T06:56:45.465Z,101601.30
2018-06-03T06:57:49.718Z,101608.50
2018-06-03T06:58:53.846Z,101604.39
2018-06-03T06:59:58.772Z,101608.27
2018-06-03T07:01:02.897Z,101611.07
2018-06-03T07:02:07.038Z,101610.00
2018-06-03T07:03:11.203Z,101604.90
2018-06-03T07:04:16.109Z,101603.88
2018-06-03T07:05:20.288Z,101611.91
2018-06-03T07:06:24.426Z,101611.34
2018-06-03T07:07:28.603Z,101612.68
2018-06-03T07:08:33.658Z,101612.75
2018-06-03T07:09:37.791Z,101610.79
2018-06-03T07:10:42.768Z,101612.56
2018-06-03T07:11:46.897Z,101616.47
2018-06-03T07:12:51.033Z,101615.12
2018-06-03T07:13:56.154Z,101612.97
2018-06-03T07:15:00.291Z,101615.80
2018-06-03T07:16:05.193Z,101619.31
2018-06-03T07:17:09.336Z,101610.98
2018-06-03T07:18:14.254Z,101619.52
2018-06-03T07:19:19.181Z,101611.69
2018-06-03T07:20:24.142Z,101611.34
2018-06-03T07:21:28.274Z,101617.30
2018-06-03T07:22:32.429Z,101609.07
2018-06-03T07:23:36.582Z,101608.97
2018-06-03T07:24:40.841Z,101614.37
2018-06-03T07:25:45.038Z,101615.34
2018-06-03T07:26:50.665Z,101616.84
2018-06-03T07:27:56.327Z,101615.71
2018-06-03T07:29:00.473Z,101618.11
2018-06-03T07:30:04.618Z,101617.89
2018-06-03T07:31:09.138Z,101616.89
2018-06-03T07:32:13.270Z,101618.58
2018-06-03T07:33:17.497Z,101616.66
2018-06-03T07:34:21.623Z,101617.41
2018-06-03T07:35:26.639Z,101618.09
2018-06-03T07:36:30.925Z,101613.58
2018-06-03T07:37:35.055Z,101617.10
2018-06-03T07:38:39.958Z,101616.23
2018-06-03T07:39:44.090Z,101619.59
2018-06-03T07:40:48.222Z,101615.55
2018-06-03T07:41:52.365Z,101611.95
2018-06-03T07:42:56.522Z,101618.27
2018-06-03T07:44:01.962Z,101610.27
2018-06-03T07:45:06.091Z,101615.70
2018-06-03T07:46:10.220Z,101611.74
2018-06-03T07:47:14.351Z,101616.63
2018-06-03T07:48:18.515Z,101608.98
2018-06-03T07:49:22.675Z,101609.14
2018-06-03T07:50:26.832Z,101612.83
2018-06-03T07:51:31.774Z,101610.83
2018-06-03T07:52:35.905Z,101611.78
2018-06-03T07:53:40.037Z,101609.01
2018-06-03T07:54:45.942Z,101613.17
2018-06-03T07:55:50.105Z,101609.14
2018-06-03T07:56:54.367Z,101612.61
2018-06-03T07:57:58.507Z,101614.48
2018-06-03T07:59:02.648Z,101613.58
2018-06-03T08:00:06.781Z,101618.81
2018-06-03T08:01:10.905Z,101616.80
2018-06-03T08:02:15.254Z,101620.50
2018-06-03T08:03:19.565Z,101624.59
2018-06-03T08:04:23.710Z,101617.32
2018-06-03T08:05:28.616Z,101615.62
2018-06-03T08:06:32.762Z,101616.09
2018-06-03T08:07:36.939Z,101619.06
2018-06-03T08:08:41.071Z,101619.58
2018-06-03T08:09:45.969Z,101616.05
2018-06-03T08:10:50.862Z,101621.28
2018-06-03T08:11:54.993Z,101617.63
2018-06-03T08:12:59.606Z,101617.06
2018-06-03T08:14:03.749Z,101617.27
2018-06-03T08:15:07.869Z,101620.02
2018-06-03T08:16:12.774Z,101618.84
2018-06-03T08:17:16.902Z,101618.09
2018-06-03T08:18:22.154Z,101619.45
2018-06-03T08:19:26.281Z,101622.05
2018-06-03T08:20:30.418Z,101617.27
2018-06-03T08:21:34.698Z,101614.74
2018-06-03T08:22:38.825Z,101616.70
2018-06-03T08:23:42.977Z,101618.09
2018-06-03T08:24:48.525Z,101616.35
2018-06-03T08:25:53.454Z,101616.63
2018-06-03T08:26:58.375Z,101612.36
2018-06-03T08:28:02.502Z,101612.70
2018-06-03T08:29:06.629Z,101616.58
2018-06-03T08:30:10.781Z,101617.92
2018-06-03T08:31:14.911Z,101618.05
2018-06-03T08:32:19.850Z,101616.90
2018-06-03T08:33:23.993Z,101620.36
2018-06-03T08:34:28.153Z,101617.07
2018-06-03T08:35:32.283Z,101618.22
2018-06-03T08:36:36.431Z,101617.48
2018-06-03T08:37:40.594Z,101615.25
2018-06-03T08:38:45.485Z,101616.02
2018-06-03T08:39:50.412Z,101617.69
2018-06-03T08:40:54.594Z,101616.13
2018-06-03T08:41:58.748Z,101612.53
2018-06-03T08:43:02.886Z,101615.75
2018-06-03T08:44:07.022Z,101613.94
2018-06-03T08:45:11.170Z,101610.21
2018-06-03T08:46:15.739Z,101615.33
2018-06-03T08:47:19.874Z,101614.78
2018-06-03T08:48:24.009Z,101609.52
2018-06-03T08:49:28.159Z,101612.44
2018-06-03T08:50:32.287Z,101617.30
2018-06-03T08:51:36.635Z,101617.84
2018-06-03T08:52:40.770Z,101611.96
2018-06-03T08:53:45.693Z,101613.05
2018-06-03T08:54:50.591Z,101612.73
2018-06-03T08:55:54.840Z,101609.20
2018-06-03T08:56:59.779Z,101614.80
2018-06-03T08:58:03.956Z,101611.18
2018-06-03T08:59:08.084Z,101615.84
2018-06-03T09:00:12.287Z,101618.60
2018-06-03T09:01:17.265Z,101615.16
2018-06-03T09:02:21.393Z,101614.25
2018-06-03T09:03:25.537Z,101616.48
2018-06-03T09:04:30.454Z,101613.86
2018-06-03T09:05:35.375Z,101615.87
2018-06-03T09:06:39.573Z,101616.20
2018-06-03T09:07:43.733Z,101618.68
2018-06-03T09:08:47.887Z,101620.87
2018-06-03T09:09:52.107Z,101621.94
2018-06-03T09:10:56.258Z,101617.67
2018-06-03T09:12:00.605Z,101618.53
2018-06-03T09:13:04.796Z,101614.31
2018-06-03T09:14:09.743Z,101618.68
2018-06-03T09:15:13.913Z,101617.13
2018-06-03T09:16:18.043Z,101615.71
2018-06-03T09:17:22.232Z,101617.42
2018-06-03T09:18:27.136Z,101620.25
2018-06-03T09:19:32.064Z,101615.42
2018-06-03T09:20:36.194Z,101622.52
2018-06-03T09:21:40.339Z,101618.59
2018-06-03T09:22:44.594Z,101614.09
2018-06-03T09:23:48.729Z,101613.45
2018-06-03T09:24:52.877Z,101615.35
2018-06-03T09:25:57.009Z,101616.25
2018-06-03T09:27:02.645Z,101615.24
2018-06-03T09:28:06.862Z,101618.65
2018-06-03T09:29:10.995Z,101619.70
2018-06-03T09:30:15.907Z,101622.70
2018-06-03T09:31:20.806Z,101620.61
2018-06-03T09:32:24.942Z,101613.53
2018-06-03T09:33:29.129Z,101613.88
2018-06-03T09:34:33.277Z,101618.69
2018-06-03T09:35:38.175Z,101609.59
2018-06-03T09:36:42.309Z,101609.02
2018-06-03T09:37:47.230Z,101611.05
2018-06-03T09:38:51.458Z,101610.22
2018-06-03T09:39:55.621Z,101611.44
2018-06-03T09:40:59.797Z,101614.61
2018-06-03T09:42:03.983Z,101613.05
2018-06-03T09:43:08.242Z,101614.91
2018-06-03T09:44:12.561Z,101616.20
2018-06-03T09:45:16.703Z,101616.97
2018-06-03T09:46:21.611Z,101618.81
2018-06-03T09:47:25.754Z,101613.33
2018-06-03T09:48:30.667Z,101615.30
2018-06-03T09:49:35.655Z,101609.30
2018-06-03T09:50:39.794Z,101612.06
2018-06-03T09:51:45.438Z,101612.91
2018-06-03T09:52:49.566Z,101612.66
2018-06-03T09:53:54.479Z,101610.45
2018-06-03T09:54:58.658Z,101608.80
2018-06-03T09:56:02.793Z,101607.41
2018-06-03T09:57:06.937Z,101613.44
2018-06-03T09:58:11.072Z,101616.77
2018-06-03T09:59:15.210Z,101610.66
2018-06-03T10:00:19.394Z,101614.32
2018-06-03T10:01:23.527Z,101614.15
2018-06-03T10:02:28.174Z,101611.16
2018-06-03T10:03:32.351Z,101615.81
2018-06-03T10:04:36.557Z,101613.67
2018-06-03T10:05:40.694Z,101616.53
2018-06-03T10:06:44.861Z,101614.17
2018-06-03T10:07:49.192Z,101607.94
2018-06-03T10:08:53.332Z,101610.74
2018-06-03T10:09:58.346Z,101605.47
2018-06-03T10:11:02.491Z,101606.45
2018-06-03T10:12:06.644Z,101605.45
2018-06-03T10:13:11.270Z,101606.42
2018-06-03T10:14:15.405Z,101605.61
2018-06-03T10:15:19.537Z,101601.97
2018-06-03T10:16:23.674Z,101600.98
2018-06-03T10:17:27.809Z,101595.00
2018-06-03T10:18:31.973Z,101596.63
2018-06-03T10:19:36.123Z,101602.22
2018-06-03T10:20:40.257Z,101603.15
2018-06-03T10:21:44.410Z,101601.20
2018-06-03T10:22:48.537Z,101600.81
2018-06-03T10:23:52.875Z,101603.00
2018-06-03T10:24:57.005Z,101605.05
2018-06-03T10:26:01.913Z,101605.66
2018-06-03T10:27:06.148Z,101602.50
2018-06-03T10:28:11.055Z,101604.60
2018-06-03T10:29:15.237Z,101605.81
2018-06-03T10:30:19.367Z,101598.63
2018-06-03T10:31:26.355Z,101600.08
2018-06-03T10:32:30.496Z,101601.08
2018-06-03T10:33:34.652Z,101601.70
2018-06-03T10:35:10.138Z,101599.22
2018-06-03T10:36:15.654Z,101608.14
2018-06-03T10:37:21.051Z,101598.31
2018-06-03T10:38:26.507Z,101610.54
2018-06-03T10:39:31.939Z,101600.80
2018-06-03T10:40:37.411Z,101602.11
2018-06-03T10:41:42.890Z,101604.50
2018-06-03T10:42:48.299Z,101604.70
2018-06-03T10:43:53.747Z,101605.73
2018-06-03T10:44:59.137Z,101600.33
2018-06-03T10:46:04.614Z,101598.14
2018-06-03T10:47:10.075Z,101601.70
2018-06-03T10:48:15.628Z,101604.59
2018-06-03T10:49:21.236Z,101595.31
2018-06-03T10:50:26.794Z,101596.02
2018-06-03T10:51:32.234Z,101597.08
2018-06-03T10:52:37.757Z,101597.72
2018-06-03T10:53:43.199Z,101602.23
2018-06-03T10:54:48.685Z,101599.13
2018-06-03T10:55:54.185Z,101599.20
2018-06-03T10:56:59.605Z,101600.34
2018-06-03T10:58:05.134Z,101598.16
2018-06-03T10:59:10.582Z,101602.86
2018-06-03T11:00:16.055Z,101599.39
2018-06-03T11:01:21.519Z,101599.41
2018-06-03T11:02:26.945Z,101605.95
2018-06-03T11:03:32.044Z,101603.04
2018-06-03T11:04:37.393Z,101600.56
2018-06-03T11:05:42.873Z,101601.24
2018-06-03T11:06:48.301Z,101600.27
2018-06-03T11:07:53.849Z,101604.13
2018-06-03T11:08:59.249Z,101607.41
2018-06-03T11:10:05.151Z,101603.84
2018-06-03T11:11:10.594Z,101602.19
2018-06-03T11:12:16.226Z,101597.84
2018-06-03T11:13:21.722Z,101600.60
2018-06-03T11:14:27.147Z,101593.94
2018-06-03T11:15:32.667Z,101594.66
2018-06-03T11:16:38.262Z,101598.36
2018-06-03T11:17:43.734Z,101596.48
2018-06-03T11:18:49.169Z,101594.28
2018-06-03T11:19:54.605Z,101591.53
2018-06-03T11:21:00.038Z,101593.43
2018-06-03T11:22:05.578Z,101593.15
2018-06-03T11:23:10.713Z,101594.88
2018-06-03T11:24:16.511Z,101587.84
2018-06-03T11:25:21.934Z,101590.05
2018-06-03T11:26:27.510Z,101588.63
2018-06-03T11:27:33.131Z,101587.73
2018-06-03T11:28:38.507Z,101594.14
2018-06-03T11:29:43.961Z,101592.36
2018-06-03T11:30:49.390Z,101595.17
2018-06-03T11:31:54.781Z,101592.58
2018-06-03T11:33:00.254Z,101590.76
2018-06-03T11:34:05.823Z,101595.45
2018-06-03T11:35:11.303Z,101594.91
2018-06-03T11:36:16.730Z,101588.52
2018-06-03T11:37:22.153Z,101592.52
2018-06-03T11:38:27.564Z,101593.55
2018-06-03T11:39:32.983Z,101596.80
2018-06-03T11:40:38.594Z,101590.23
2018-06-03T11:41:44.088Z,101592.42
2018-06-03T11:42:49.494Z,101596.13
2018-06-03T11:43:55.261Z,101595.48
2018-06-03T11:45:00.819Z,101594.21
2018-06-03T11:46:06.493Z,101599.32
2018-06-03T11:47:11.937Z,101590.65
2018-06-03T11:48:17.343Z,101592.22
2018-06-03T11:49:22.792Z,101584.89
2018-06-03T11:50:28.697Z,101589.15
2018-06-03T11:51:34.177Z,101588.56
2018-06-03T11:52:39.449Z,101588.87
2018-06-03T11:53:45.118Z,101585.12
2018-06-03T11:54:50.725Z,101590.52
2018-06-03T11:55:56.319Z,101585.85
2018-06-03T11:57:04.921Z,101588.23
2018-06-03T11:59:08.579Z,101589.93
2018-06-03T12:00:14.058Z,101584.53
2018-06-03T12:01:19.829Z,101584.55
2018-06-03T12:02:25.381Z,101584.80
2018-06-03T12:03:31.526Z,101593.33
2018-06-03T12:04:37.421Z,101589.47
2018-06-03T12:05:43.118Z,101587.72
2018-06-03T12:06:48.613Z,101587.20
2018-06-03T12:07:54.566Z,101588.47
2018-06-03T12:09:00.592Z,101584.49
2018-06-03T12:10:07.326Z,101583.63
2018-06-03T12:11:13.679Z,101584.48
2018-06-03T12:12:19.202Z,101585.30
2018-06-03T12:13:24.618Z,101587.55
2018-06-03T12:14:30.055Z,101586.28
2018-06-03T12:15:35.484Z,101585.91
2018-06-03T12:16:40.594Z,101583.47
2018-06-03T12:17:45.978Z,101578.76
2018-06-03T12:18:51.394Z,101585.27
2018-06-03T12:19:56.826Z,101580.91
2018-06-03T12:21:02.290Z,101583.53